Terminal Aerodrome Forecast
Issued by NWS Tuscon, AZ

Home | Current Version | Previous Version | Text Only | Print | Product List | Glossary On
Versions: 1 2 3 4 5 6 7 8 9 10 11 12 13 14 15 16
000
FTUS45 KTWC 172300
TAFDUG
TAF
KDUG 172325Z 1800/1824 14009KT P6SM -SHRA SCT030 OVC080
     FM180200 18010KT 5SM -SHRA SCT015 BKN040
     FM180600 14008KT 4SM -SHRA BKN020 OVC040
     FM181600 21012G18KT P6SM -SHRA SCT020 OVC050=

USA.gov is the U.S. government's official web portal to all federal, state and local government web resources and services.